Time;durP1;ratioP1;P1;durP2;ratioP2;P2;SDS_P1;SDS_P2;PMS_P1;PMS_P2;Temp;Humidity;BMP_temperature;BMP_pressure;BME280_temperature;BME280_humidity;BME280_pressure;Samples;Min_cycle;Max_cycle;Signal;HPM_P1;HPM_P2
2023/12/14 00:00:27;;;;;;;99.17;34.57;;;10.80;99.90;;;;;;7282887;19;20368;-76
2023/12/14 00:02:53;;;;;;;96.43;35.33;;;10.80;99.90;;;;;;7283296;19;20191;-78
2023/12/14 00:05:19;;;;;;;100.47;36.83;;;10.80;99.90;;;;;;7303965;19;20196;-76
2023/12/14 00:07:45;;;;;;;94.87;36.50;;;10.90;99.90;;;;;;7283153;19;20250;-77
2023/12/14 00:10:12;;;;;;;92.87;35.87;;;10.80;99.90;;;;;;7283898;19;20310;-77
2023/12/14 00:12:38;;;;;;;90.30;34.23;;;10.90;99.90;;;;;;7281257;19;20191;-77
2023/12/14 00:15:05;;;;;;;100.00;35.63;;;10.90;99.90;;;;;;7282239;19;20188;-77
2023/12/14 00:17:30;;;;;;;93.43;35.77;;;10.80;99.90;;;;;;7279216;19;20516;-76
2023/12/14 00:19:56;;;;;;;81.23;34.27;;;10.90;99.90;;;;;;7280206;19;20186;-76
2023/12/14 00:22:22;;;;;;;91.80;34.03;;;10.70;99.90;;;;;;7281416;19;20716;-76
2023/12/14 00:24:48;;;;;;;92.30;33.53;;;10.80;99.90;;;;;;7301832;19;20187;-77
2023/12/14 00:27:13;;;;;;;86.40;32.27;;;10.90;99.90;;;;;;7278494;19;20188;-77
2023/12/14 00:29:39;;;;;;;78.23;32.03;;;10.90;99.90;;;;;;7279383;19;20579;-77
2023/12/14 00:32:05;;;;;;;82.73;31.77;;;10.80;99.90;;;;;;7281151;19;20211;-76
2023/12/14 00:34:31;;;;;;;71.87;30.23;;;10.70;99.90;;;;;;7280795;19;20202;-76
2023/12/14 00:36:57;;;;;;;71.10;29.17;;;10.70;99.90;;;;;;7286407;19;20181;-76
2023/12/14 00:39:22;;;;;;;72.57;28.70;;;10.60;99.90;;;;;;7287081;19;20188;-77
2023/12/14 00:41:48;;;;;;;73.43;30.30;;;10.50;99.90;;;;;;7307834;19;20867;-76
2023/12/14 00:44:14;;;;;;;76.80;29.70;;;10.60;99.90;;;;;;7286142;19;20638;-76
2023/12/14 00:46:41;;;;;;;73.17;29.93;;;10.90;99.90;;;;;;7285177;19;20199;-76
2023/12/14 00:49:07;;;;;;;77.63;30.33;;;11.10;99.90;;;;;;7285614;19;20188;-75
2023/12/14 00:51:33;;;;;;;74.10;30.10;;;11.20;99.90;;;;;;7284464;19;20188;-76
2023/12/14 00:53:59;;;;;;;75.13;28.77;;;11.10;99.90;;;;;;7284150;19;20195;-76
2023/12/14 00:56:24;;;;;;;77.37;30.63;;;11.20;99.90;;;;;;7283230;19;20198;-76
2023/12/14 00:58:50;;;;;;;81.33;30.03;;;11.30;99.90;;;;;;7306721;19;20180;-75
2023/12/14 01:01:16;;;;;;;77.23;29.70;;;11.40;99.90;;;;;;7285892;19;20185;-77
2023/12/14 01:03:42;;;;;;;74.87;30.00;;;11.20;99.90;;;;;;7286697;19;20180;-76
2023/12/14 01:06:07;;;;;;;83.83;31.13;;;11.20;99.90;;;;;;7285430;19;20186;-77
2023/12/14 01:08:33;;;;;;;89.30;31.83;;;11.20;99.90;;;;;;7285383;19;20202;-76
2023/12/14 01:10:59;;;;;;;86.17;31.27;;;11.10;99.90;;;;;;7285108;19;20195;-76
2023/12/14 01:13:24;;;;;;;84.73;32.03;;;11.10;99.90;;;;;;7285097;19;20197;-76
2023/12/14 01:15:50;;;;;;;86.17;32.53;;;10.90;99.90;;;;;;7307706;19;20662;-76
2023/12/14 01:18:17;;;;;;;97.20;33.13;;;10.90;99.90;;;;;;7287320;19;20195;-77
2023/12/14 01:20:43;;;;;;;93.57;33.57;;;10.90;99.90;;;;;;7284343;19;20226;-76
2023/12/14 01:23:11;;;;;;;91.20;33.20;;;11.00;99.90;;;;;;7284173;19;20198;-77
2023/12/14 01:25:37;;;;;;;93.87;32.33;;;11.00;99.90;;;;;;7283014;19;20197;-77
2023/12/14 01:28:03;;;;;;;96.37;35.07;;;11.10;99.90;;;;;;7281985;19;20656;-76
2023/12/14 01:30:28;;;;;;;97.53;33.73;;;11.10;99.90;;;;;;7283789;19;20678;-76
2023/12/14 01:32:54;;;;;;;97.23;33.63;;;11.10;99.90;;;;;;7282571;19;20183;-76
2023/12/14 01:35:20;;;;;;;95.80;33.43;;;11.10;99.90;;;;;;7306009;19;20177;-76
2023/12/14 01:37:45;;;;;;;100.53;34.20;;;11.20;99.90;;;;;;7286210;19;20266;-77
2023/12/14 01:40:12;;;;;;;107.43;35.93;;;11.00;99.90;;;;;;7285123;19;20177;-77
2023/12/14 01:42:37;;;;;;;101.53;35.27;;;11.00;99.90;;;;;;7284901;19;20649;-76
2023/12/14 01:45:05;;;;;;;98.77;34.97;;;10.90;99.90;;;;;;7283623;19;20206;-76
2023/12/14 01:47:30;;;;;;;96.53;34.90;;;10.90;99.90;;;;;;7284349;19;20190;-76
2023/12/14 01:49:56;;;;;;;102.90;35.03;;;10.70;99.90;;;;;;7284279;19;20212;-76
2023/12/14 01:52:22;;;;;;;98.63;34.10;;;10.80;99.90;;;;;;7291374;19;20175;-76
2023/12/14 01:54:47;;;;;;;99.40;34.00;;;10.70;99.90;;;;;;7305104;19;20194;-77
2023/12/14 01:57:13;;;;;;;92.37;33.57;;;10.80;99.90;;;;;;7284498;19;20186;-77
2023/12/14 01:59:39;;;;;;;90.43;31.67;;;10.80;99.90;;;;;;7285131;19;20193;-77
2023/12/14 02:02:05;;;;;;;94.77;32.43;;;10.70;99.90;;;;;;7284743;19;20554;-76
2023/12/14 02:04:31;;;;;;;96.80;33.90;;;10.70;99.90;;;;;;7284092;19;20208;-77
2023/12/14 02:06:57;;;;;;;93.83;33.03;;;10.80;99.90;;;;;;7284508;19;20196;-76
2023/12/14 02:09:23;;;;;;;90.27;31.73;;;10.80;99.90;;;;;;7283880;19;20184;-77
2023/12/14 02:11:48;;;;;;;91.03;31.83;;;10.60;99.90;;;;;;7308082;19;20206;-76
2023/12/14 02:14:14;;;;;;;95.07;31.70;;;10.60;99.90;;;;;;7284401;19;20181;-76
2023/12/14 02:16:40;;;;;;;98.87;33.57;;;10.60;99.90;;;;;;7283777;19;20254;-76
2023/12/14 02:19:06;;;;;;;97.57;32.97;;;10.50;99.90;;;;;;7284376;19;20196;-76
2023/12/14 02:21:32;;;;;;;102.70;34.37;;;10.40;99.90;;;;;;7284681;19;20259;-77
2023/12/14 02:23:58;;;;;;;94.83;33.30;;;10.40;99.90;;;;;;7283306;19;20199;-76
2023/12/14 02:26:23;;;;;;;96.33;32.90;;;10.30;99.90;;;;;;7282470;19;20198;-77
2023/12/14 02:28:49;;;;;;;97.83;33.30;;;10.50;99.90;;;;;;7305094;19;20190;-77
2023/12/14 02:31:15;;;;;;;97.50;34.40;;;10.60;99.90;;;;;;7284497;19;20777;-77
2023/12/14 02:33:41;;;;;;;100.13;35.13;;;10.60;99.90;;;;;;7283996;19;20740;-76
2023/12/14 02:36:07;;;;;;;99.53;34.03;;;10.70;99.90;;;;;;7282286;19;20187;-76
2023/12/14 02:38:33;;;;;;;94.03;34.70;;;10.60;99.90;;;;;;7282898;19;20208;-77
2023/12/14 02:40:59;;;;;;;94.13;33.53;;;10.40;99.90;;;;;;7284308;19;20190;-76
2023/12/14 02:43:24;;;;;;;94.60;34.00;;;10.50;99.90;;;;;;7283619;19;20212;-76
2023/12/14 02:45:50;;;;;;;92.83;34.27;;;10.60;99.90;;;;;;7304559;19;20883;-76
2023/12/14 02:48:16;;;;;;;81.77;32.67;;;10.70;99.90;;;;;;7282145;19;20307;-77
2023/12/14 02:50:42;;;;;;;90.93;34.87;;;10.50;99.90;;;;;;7284594;19;20195;-76
2023/12/14 02:53:08;;;;;;;86.37;32.10;;;10.30;99.90;;;;;;7283888;19;20193;-76
2023/12/14 02:55:33;;;;;;;84.63;32.47;;;10.20;99.90;;;;;;7283642;19;20560;-76
2023/12/14 02:57:59;;;;;;;92.67;33.23;;;10.20;99.90;;;;;;7280835;19;20684;-76
2023/12/14 03:00:25;;;;;;;92.17;35.00;;;10.40;99.90;;;;;;7282493;19;20258;-77
2023/12/14 03:02:50;;;;;;;90.60;35.43;;;10.40;99.90;;;;;;7304333;19;20186;-76
2023/12/14 03:05:16;;;;;;;98.67;37.00;;;10.40;99.90;;;;;;7283889;19;20213;-76
2023/12/14 03:07:42;;;;;;;90.13;36.27;;;10.50;99.90;;;;;;7282509;19;20276;-77
2023/12/14 03:10:08;;;;;;;93.17;36.57;;;10.50;99.90;;;;;;7280732;19;20587;-76
2023/12/14 03:12:34;;;;;;;88.93;37.57;;;10.50;99.90;;;;;;7284721;19;20196;-77
2023/12/14 03:15:00;;;;;;;91.03;38.77;;;10.60;99.90;;;;;;7283579;19;20678;-76
2023/12/14 03:17:26;;;;;;;90.30;38.23;;;10.50;99.90;;;;;;7280354;19;20190;-77
2023/12/14 03:19:51;;;;;;;92.37;38.20;;;10.30;99.90;;;;;;7297203;19;20573;-76
2023/12/14 03:22:17;;;;;;;97.37;37.93;;;10.20;99.90;;;;;;7296607;19;21066;-76
2023/12/14 03:24:43;;;;;;;101.20;38.03;;;10.20;99.90;;;;;;7281388;19;20201;-77
2023/12/14 03:27:09;;;;;;;96.47;35.77;;;10.10;99.90;;;;;;7280304;19;20664;-76
2023/12/14 03:29:35;;;;;;;93.30;35.97;;;10.10;99.90;;;;;;7282917;19;20190;-77
2023/12/14 03:32:01;;;;;;;86.50;33.10;;;10.10;99.90;;;;;;7282935;19;20288;-77
2023/12/14 03:34:26;;;;;;;64.07;26.97;;;10.10;99.90;;;;;;7282657;19;20273;-76
2023/12/14 03:36:52;;;;;;;52.33;21.60;;;10.00;99.90;;;;;;7288633;19;20676;-76
2023/12/14 03:39:18;;;;;;;51.13;21.13;;;9.80;99.90;;;;;;7305661;19;20207;-76
2023/12/14 03:41:44;;;;;;;51.77;21.43;;;9.70;99.90;;;;;;7282445;19;20230;-77
2023/12/14 03:44:10;;;;;;;47.67;20.93;;;9.40;99.90;;;;;;7282800;19;20963;-76
2023/12/14 03:46:36;;;;;;;49.17;20.33;;;9.30;99.90;;;;;;7281561;19;20197;-76
2023/12/14 03:49:03;;;;;;;47.43;21.30;;;9.20;99.90;;;;;;7278161;19;20260;-76
2023/12/14 03:51:29;;;;;;;47.87;20.23;;;9.20;99.90;;;;;;7282553;19;20189;-76
2023/12/14 03:53:55;;;;;;;52.33;21.63;;;9.20;99.90;;;;;;7280979;19;20688;-76
2023/12/14 03:56:22;;;;;;;60.20;24.67;;;9.10;99.90;;;;;;7299847;19;20290;-76
2023/12/14 03:58:47;;;;;;;66.30;26.20;;;9.00;99.90;;;;;;7299626;19;20189;-76
2023/12/14 04:01:17;;;;;;;68.97;26.63;;;8.80;99.90;;;;;;7279119;19;20556;-76
2023/12/14 04:03:44;;;;;;;74.33;27.13;;;8.60;99.90;;;;;;7279301;19;20189;-76
2023/12/14 04:06:10;;;;;;;76.97;28.53;;;8.50;99.90;;;;;;7280150;19;20193;-76
2023/12/14 04:08:36;;;;;;;82.17;30.13;;;8.50;99.90;;;;;;7279632;19;20193;-76
2023/12/14 04:11:02;;;;;;;84.57;31.30;;;8.40;99.90;;;;;;7281036;19;20197;-75
2023/12/14 04:13:27;;;;;;;88.83;30.77;;;8.50;99.90;;;;;;7280354;19;20200;-76
2023/12/14 04:15:53;;;;;;;84.00;30.63;;;8.40;99.90;;;;;;7280046;19;20229;-76
2023/12/14 04:18:19;;;;;;;79.13;30.47;;;8.20;99.90;;;;;;7302068;19;20615;-76
2023/12/14 04:20:45;;;;;;;72.43;28.40;;;8.40;99.90;;;;;;7280203;19;20243;-76
2023/12/14 04:23:10;;;;;;;66.87;26.63;;;8.20;99.90;;;;;;7278536;19;21263;-76
2023/12/14 04:25:36;;;;;;;61.70;25.07;;;8.00;99.90;;;;;;7280561;19;20213;-76
2023/12/14 04:28:02;;;;;;;61.73;26.73;;;8.10;99.90;;;;;;7278940;19;20671;-76
2023/12/14 04:30:28;;;;;;;56.90;26.27;;;7.90;99.90;;;;;;7280574;19;20209;-76
2023/12/14 04:32:53;;;;;;;56.80;26.30;;;7.90;99.90;;;;;;7279354;19;20652;-76
2023/12/14 04:35:22;;;;;;;59.00;27.57;;;8.00;99.90;;;;;;7302401;19;20316;-76
2023/12/14 04:37:48;;;;;;;57.13;27.90;;;7.90;99.90;;;;;;7278664;19;20656;-76
2023/12/14 04:40:14;;;;;;;59.10;28.67;;;8.00;99.90;;;;;;7277316;19;20227;-77
2023/12/14 04:42:40;;;;;;;57.40;27.83;;;7.90;99.90;;;;;;7277606;19;20202;-76
2023/12/14 04:45:06;;;;;;;50.13;25.93;;;7.90;99.90;;;;;;7277275;19;20209;-76
2023/12/14 04:47:32;;;;;;;52.07;27.50;;;7.80;99.90;;;;;;7278493;19;20220;-77
2023/12/14 04:49:58;;;;;;;48.80;26.10;;;7.70;99.90;;;;;;7279616;19;20184;-76
2023/12/14 04:52:23;;;;;;;52.17;27.60;;;7.80;99.90;;;;;;7278984;19;20193;-76
2023/12/14 04:54:49;;;;;;;49.43;26.50;;;7.80;99.90;;;;;;7298149;19;20617;-76
2023/12/14 04:57:15;;;;;;;50.70;26.80;;;7.90;99.90;;;;;;7279295;19;20680;-76
2023/12/14 04:59:42;;;;;;;51.00;26.53;;;8.00;99.90;;;;;;7279585;19;21417;-76
2023/12/14 05:02:07;;;;;;;47.03;24.97;;;8.20;99.90;;;;;;7280038;19;20194;-76
2023/12/14 05:04:33;;;;;;;47.00;24.97;;;8.30;99.90;;;;;;7279305;19;20185;-76
2023/12/14 05:06:59;;;;;;;50.53;25.33;;;8.40;99.90;;;;;;7279455;19;20637;-78
2023/12/14 05:09:25;;;;;;;53.30;25.87;;;8.50;99.90;;;;;;7278774;19;20185;-77
2023/12/14 05:11:51;;;;;;;47.60;25.30;;;8.50;99.90;;;;;;7299330;19;20193;-77
2023/12/14 05:14:17;;;;;;;50.73;25.73;;;8.40;99.90;;;;;;7278458;19;20185;-77
2023/12/14 05:16:43;;;;;;;50.97;25.87;;;8.40;99.90;;;;;;7279928;19;20248;-77
2023/12/14 05:19:09;;;;;;;54.77;27.93;;;8.40;99.90;;;;;;7277435;19;20189;-77
2023/12/14 05:21:35;;;;;;;57.03;26.90;;;8.20;99.90;;;;;;7280537;19;20184;-77
2023/12/14 05:24:01;;;;;;;51.03;25.37;;;8.40;99.90;;;;;;7285612;19;20196;-77
2023/12/14 05:26:27;;;;;;;56.67;28.83;;;8.40;99.90;;;;;;7285375;19;20184;-77
2023/12/14 05:28:53;;;;;;;58.80;29.73;;;8.40;99.90;;;;;;7287698;19;20555;-78
2023/12/14 05:31:19;;;;;;;57.40;29.43;;;8.30;99.90;;;;;;7307151;19;20211;-74
2023/12/14 05:33:45;;;;;;;56.57;30.00;;;8.20;99.90;;;;;;7285759;19;20632;-74
2023/12/14 05:36:10;;;;;;;58.83;30.13;;;8.10;99.90;;;;;;7285256;19;20204;-74
2023/12/14 05:38:40;;;;;;;56.10;29.20;;;8.20;99.90;;;;;;7284599;19;20185;-77
2023/12/14 05:41:06;;;;;;;61.07;28.70;;;8.40;99.90;;;;;;7282486;19;20192;-75
2023/12/14 05:43:32;;;;;;;60.53;28.67;;;8.40;99.90;;;;;;7282104;19;20187;-75
2023/12/14 05:45:57;;;;;;;55.20;28.63;;;8.40;99.90;;;;;;7281055;19;20305;-74
2023/12/14 05:48:23;;;;;;;53.40;28.03;;;8.60;99.90;;;;;;7281274;19;20188;-75
2023/12/14 05:50:51;;;;;;;51.63;27.17;;;8.60;99.90;;;;;;7303941;19;20181;-75
2023/12/14 05:53:17;;;;;;;51.77;26.83;;;8.60;99.90;;;;;;7282420;19;20195;-75
2023/12/14 05:55:43;;;;;;;49.33;26.37;;;8.60;99.90;;;;;;7284263;19;20174;-75
2023/12/14 05:58:08;;;;;;;52.73;26.60;;;8.50;99.90;;;;;;7282028;19;20192;-75
2023/12/14 06:00:35;;;;;;;48.83;25.77;;;8.50;99.90;;;;;;7282749;19;20192;-75
2023/12/14 06:03:02;;;;;;;50.17;26.73;;;8.60;99.90;;;;;;7283295;19;20190;-75
2023/12/14 06:05:28;;;;;;;45.03;24.10;;;8.60;99.90;;;;;;7281647;19;20192;-74
2023/12/14 06:07:53;;;;;;;44.20;24.03;;;8.70;99.90;;;;;;7281343;19;20225;-75
2023/12/14 06:10:21;;;;;;;42.83;22.87;;;8.70;99.90;;;;;;7303304;19;20656;-74
2023/12/14 06:12:47;;;;;;;40.77;23.77;;;8.60;99.90;;;;;;7280175;19;20181;-74
2023/12/14 06:15:12;;;;;;;39.63;22.30;;;8.60;99.90;;;;;;7282243;19;20187;-75
2023/12/14 06:17:40;;;;;;;40.10;22.63;;;8.60;99.90;;;;;;7281577;19;20221;-74
2023/12/14 06:20:10;;;;;;;40.27;22.73;;;8.70;99.90;;;;;;7285037;19;20188;-77
2023/12/14 06:22:39;;;;;;;38.03;22.30;;;8.90;99.90;;;;;;7285172;19;20185;-78
2023/12/14 06:25:05;;;;;;;39.67;22.07;;;9.00;99.90;;;;;;7284728;19;20197;-76
2023/12/14 06:27:31;;;;;;;38.70;21.43;;;9.00;99.90;;;;;;7283790;19;20191;-76
2023/12/14 06:29:56;;;;;;;36.53;21.47;;;9.10;99.90;;;;;;7284702;19;20185;-76
2023/12/14 06:32:22;;;;;;;37.30;21.33;;;9.10;99.90;;;;;;7295673;19;20257;-76
2023/12/14 06:34:48;;;;;;;36.33;21.13;;;9.10;99.90;;;;;;7301376;19;20653;-79
2023/12/14 06:37:14;;;;;;;39.00;21.60;;;9.10;99.90;;;;;;7283118;19;20192;-75
2023/12/14 06:39:42;;;;;;;35.03;20.17;;;9.10;99.90;;;;;;7282381;19;20217;-76
2023/12/14 06:42:08;;;;;;;37.43;20.90;;;9.20;99.90;;;;;;7280565;19;20660;-76
2023/12/14 06:44:34;;;;;;;36.47;20.27;;;9.20;99.90;;;;;;7284764;19;20223;-76
2023/12/14 06:46:59;;;;;;;40.13;20.80;;;9.20;99.90;;;;;;7283020;19;20297;-75
2023/12/14 06:49:25;;;;;;;38.27;20.10;;;9.30;99.90;;;;;;7285510;19;20196;-76
2023/12/14 06:51:51;;;;;;;34.33;19.93;;;9.20;99.90;;;;;;7300998;19;20296;-75
2023/12/14 06:54:17;;;;;;;36.33;20.13;;;9.20;99.90;;;;;;7278116;19;20644;-75
2023/12/14 06:56:43;;;;;;;28.80;17.93;;;9.10;99.90;;;;;;7281752;19;20200;-74
2023/12/14 06:59:09;;;;;;;34.07;18.33;;;9.10;99.90;;;;;;7282146;19;20234;-75
2023/12/14 07:01:34;;;;;;;28.57;17.37;;;9.10;99.90;;;;;;7281403;19;20205;-75
2023/12/14 07:04:02;;;;;;;29.67;16.93;;;8.90;99.90;;;;;;7280053;19;20194;-76
2023/12/14 07:06:28;;;;;;;29.83;16.00;;;8.80;99.90;;;;;;7279914;19;20547;-75
2023/12/14 07:08:54;;;;;;;29.37;15.43;;;8.50;99.90;;;;;;7279556;19;20189;-74
2023/12/14 07:11:20;;;;;;;28.17;15.67;;;8.40;99.90;;;;;;7301117;19;20188;-75
2023/12/14 07:13:46;;;;;;;30.60;16.60;;;8.30;99.90;;;;;;7280161;19;20628;-75
2023/12/14 07:16:12;;;;;;;29.67;15.90;;;8.30;99.90;;;;;;7278834;19;20386;-74
2023/12/14 07:18:42;;;;;;;31.47;16.43;;;8.40;99.90;;;;;;7278911;19;20656;-75
2023/12/14 07:21:08;;;;;;;33.07;16.73;;;8.30;99.90;;;;;;7279993;19;20215;-75
2023/12/14 07:23:35;;;;;;;30.13;16.33;;;8.30;99.90;;;;;;7279262;19;20557;-76
2023/12/14 07:26:01;;;;;;;32.27;17.53;;;8.40;99.90;;;;;;7278194;19;20195;-75
2023/12/14 07:28:27;;;;;;;33.60;18.43;;;8.30;99.90;;;;;;7279986;19;20213;-75
2023/12/14 07:30:53;;;;;;;36.27;17.30;;;8.20;99.90;;;;;;7288689;19;20536;-75
2023/12/14 07:33:19;;;;;;;42.50;18.03;;;8.10;99.90;;;;;;7299754;19;20209;-74
2023/12/14 07:35:44;;;;;;;34.40;17.63;;;8.10;99.90;;;;;;7277422;19;20181;-75
2023/12/14 07:38:11;;;;;;;31.97;18.50;;;8.20;99.90;;;;;;7277789;19;20185;-75
2023/12/14 07:40:38;;;;;;;39.40;18.20;;;8.30;99.90;;;;;;7279093;19;20192;-75
2023/12/14 07:43:04;;;;;;;32.80;17.73;;;8.40;99.90;;;;;;7278454;19;20188;-76
2023/12/14 07:45:30;;;;;;;36.93;17.57;;;8.40;99.90;;;;;;7278195;19;20647;-74
2023/12/14 07:47:56;;;;;;;38.20;18.33;;;8.50;99.90;;;;;;7277654;19;20197;-74
2023/12/14 07:50:22;;;;;;;38.33;18.60;;;8.60;99.90;;;;;;7294018;19;20546;-74
2023/12/14 07:52:47;;;;;;;32.80;17.80;;;8.70;99.90;;;;;;7291866;19;20204;-75
2023/12/14 07:55:13;;;;;;;29.73;17.30;;;8.70;99.90;;;;;;7278329;19;20185;-74
2023/12/14 07:57:40;;;;;;;36.40;17.73;;;8.90;99.90;;;;;;7278251;19;20197;-74
2023/12/14 08:00:08;;;;;;;31.90;17.90;;;8.90;99.90;;;;;;7276970;19;20524;-74
2023/12/14 08:02:34;;;;;;;36.17;19.23;;;8.90;99.90;;;;;;7278832;19;20193;-75
2023/12/14 08:05:00;;;;;;;35.37;20.20;;;9.00;99.90;;;;;;7278101;19;20177;-75
2023/12/14 08:07:29;;;;;;;29.07;16.87;;;8.90;99.90;;;;;;7277740;19;20263;-75
2023/12/14 08:09:56;;;;;;;32.40;15.93;;;9.00;99.90;;;;;;7279220;19;20198;-75
2023/12/14 08:12:22;;;;;;;27.20;15.77;;;9.00;99.90;;;;;;7300210;19;20300;-75
2023/12/14 08:14:48;;;;;;;36.03;20.87;;;9.00;99.90;;;;;;7297744;19;20251;-75
2023/12/14 08:17:14;;;;;;;28.17;16.43;;;9.10;99.90;;;;;;7279053;19;20264;-76
2023/12/14 08:19:40;;;;;;;28.93;15.20;;;9.10;99.90;;;;;;7277004;19;20258;-74
2023/12/14 08:22:07;;;;;;;28.43;16.03;;;9.20;99.90;;;;;;7277839;19;21497;-75
2023/12/14 08:24:33;;;;;;;31.23;16.37;;;9.30;99.90;;;;;;7277151;19;20213;-74
2023/12/14 08:26:58;;;;;;;27.63;16.00;;;9.50;99.90;;;;;;7277565;19;20185;-74
2023/12/14 08:29:24;;;;;;;26.13;15.03;;;9.60;99.90;;;;;;7275675;19;20177;-74
2023/12/14 08:31:50;;;;;;;26.83;15.13;;;9.60;99.90;;;;;;7299216;19;20197;-74
2023/12/14 08:34:16;;;;;;;27.47;15.93;;;9.70;99.90;;;;;;7277905;19;20522;-74
2023/12/14 08:36:41;;;;;;;27.27;14.00;;;9.80;99.90;;;;;;7276130;19;20206;-75
2023/12/14 08:39:07;;;;;;;28.93;13.37;;;9.70;99.90;;;;;;7277667;19;20724;-74
2023/12/14 08:41:33;;;;;;;25.97;13.70;;;9.70;99.90;;;;;;7277182;19;20313;-75
2023/12/14 08:43:59;;;;;;;22.17;12.77;;;9.70;99.90;;;;;;7275927;19;20192;-75
2023/12/14 08:46:24;;;;;;;23.30;11.83;;;9.50;99.90;;;;;;7277019;19;20197;-74
2023/12/14 08:48:50;;;;;;;22.10;12.17;;;9.40;99.90;;;;;;7297993;19;20190;-75
2023/12/14 08:51:17;;;;;;;20.10;11.87;;;9.30;99.90;;;;;;7276105;19;20551;-75
2023/12/14 08:53:43;;;;;;;23.60;12.47;;;9.30;99.90;;;;;;7276207;19;20181;-75
2023/12/14 08:56:09;;;;;;;22.83;12.60;;;9.20;99.90;;;;;;7279479;19;20653;-74
2023/12/14 08:58:35;;;;;;;20.00;12.23;;;9.30;99.90;;;;;;7284523;19;20213;-74
2023/12/14 09:01:01;;;;;;;22.37;13.83;;;9.60;99.90;;;;;;7283568;19;20218;-74
2023/12/14 09:03:27;;;;;;;25.33;11.23;;;9.70;99.90;;;;;;7282666;19;20186;-74
2023/12/14 09:05:52;;;;;;;19.70;11.17;;;9.80;99.90;;;;;;7293163;19;20196;-74
2023/12/14 09:08:18;;;;;;;20.17;10.87;;;9.70;99.90;;;;;;7302968;19;20656;-75
2023/12/14 09:10:44;;;;;;;19.37;10.33;;;9.70;99.90;;;;;;7284549;19;20185;-75
2023/12/14 09:13:10;;;;;;;20.87;10.53;;;9.70;99.90;;;;;;7282494;19;20193;-75
2023/12/14 09:15:36;;;;;;;19.93;10.73;;;9.80;99.90;;;;;;7283522;19;20198;-75
2023/12/14 09:18:02;;;;;;;19.87;10.63;;;9.90;99.90;;;;;;7281942;19;20190;-74
2023/12/14 09:20:28;;;;;;;25.07;10.60;;;10.10;99.90;;;;;;7283392;19;20591;-75
2023/12/14 09:22:54;;;;;;;19.83;9.57;;;10.10;99.90;;;;;;7280131;19;20248;-75
2023/12/14 09:25:20;;;;;;;18.63;9.30;;;10.10;99.90;;;;;;7305328;19;20192;-74
2023/12/14 09:27:46;;;;;;;20.70;9.10;;;10.00;99.90;;;;;;7283405;19;20533;-75
2023/12/14 09:30:12;;;;;;;22.50;10.80;;;9.90;99.90;;;;;;7281839;19;20320;-74
2023/12/14 09:32:39;;;;;;;20.47;9.90;;;9.90;99.90;;;;;;7282559;19;20214;-75
2023/12/14 09:35:06;;;;;;;21.47;10.00;;;10.00;99.90;;;;;;7280122;19;20266;-74
2023/12/14 09:37:32;;;;;;;15.80;8.90;;;9.90;99.90;;;;;;7284275;19;20629;-75
2023/12/14 09:39:57;;;;;;;17.27;8.63;;;9.90;99.90;;;;;;7283167;19;20224;-75
2023/12/14 09:42:23;;;;;;;17.57;8.27;;;9.90;99.90;;;;;;7286745;19;20273;-75
2023/12/14 09:44:52;;;;;;;17.87;8.50;;;9.90;99.90;;;;;;7304900;19;20217;-75
2023/12/14 09:47:17;;;;;;;16.33;7.90;;;10.00;99.90;;;;;;7283695;19;20181;-76
2023/12/14 09:49:45;;;;;;;19.07;8.33;;;10.00;99.90;;;;;;7283106;19;20649;-75
2023/12/14 09:52:11;;;;;;;16.30;8.47;;;10.00;99.90;;;;;;7281308;19;20563;-75
2023/12/14 09:54:36;;;;;;;16.00;7.57;;;10.10;99.90;;;;;;7280653;19;20295;-75
2023/12/14 09:57:02;;;;;;;19.13;7.80;;;10.20;99.90;;;;;;7282280;19;20191;-74
2023/12/14 09:59:28;;;;;;;17.73;8.73;;;10.30;99.90;;;;;;7282161;19;20190;-75
2023/12/14 10:02:09;;;;;;;19.43;8.43;;;10.30;99.90;;;;;;7281073;19;20637;-75
2023/12/14 10:04:35;;;;;;;22.40;8.47;;;10.40;99.90;;;;;;7283569;19;20197;-74
2023/12/14 10:07:06;;;;;;;21.27;8.63;;;10.30;99.90;;;;;;7281138;19;20192;-75
2023/12/14 10:09:33;;;;;;;16.20;8.23;;;10.40;99.90;;;;;;7281380;19;20190;-75
2023/12/14 10:12:05;;;;;;;17.40;8.83;;;10.40;99.90;;;;;;7281184;19;20195;-75
2023/12/14 10:14:31;;;;;;;18.03;8.10;;;10.50;99.90;;;;;;7281193;19;20190;-75
2023/12/14 10:16:57;;;;;;;18.27;8.47;;;10.60;99.90;;;;;;7281584;19;20279;-76
2023/12/14 10:19:23;;;;;;;19.70;9.00;;;10.50;99.90;;;;;;7288437;19;20273;-75
2023/12/14 10:21:50;;;;;;;15.30;8.50;;;10.60;99.90;;;;;;7301890;19;20274;-75
2023/12/14 10:24:16;;;;;;;19.97;7.77;;;10.70;99.90;;;;;;7278869;19;20269;-75
2023/12/14 10:26:45;;;;;;;21.47;8.07;;;10.70;99.90;;;;;;7280069;19;20283;-75
2023/12/14 10:29:10;;;;;;;17.17;8.27;;;10.90;99.90;;;;;;7280272;19;20195;-75
2023/12/14 10:31:39;;;;;;;16.93;7.90;;;10.80;99.90;;;;;;7280818;19;20206;-75
2023/12/14 10:34:05;;;;;;;17.67;7.83;;;10.90;99.90;;;;;;7280356;19;20195;-75
2023/12/14 10:36:32;;;;;;;18.57;7.90;;;10.80;99.90;;;;;;7280495;19;20190;-75
2023/12/14 10:39:00;;;;;;;20.23;7.77;;;10.90;99.90;;;;;;7279769;19;20198;-75
2023/12/14 10:41:28;;;;;;;17.37;8.10;;;10.90;99.90;;;;;;7280766;19;20190;-74
2023/12/14 10:43:56;;;;;;;17.00;8.23;;;11.10;99.90;;;;;;7279923;19;20196;-75
2023/12/14 10:46:23;;;;;;;16.83;8.17;;;11.10;99.90;;;;;;7302852;19;20265;-74
2023/12/14 10:48:50;;;;;;;13.83;7.23;;;11.00;99.90;;;;;;7279835;19;20192;-75
2023/12/14 10:51:21;;;;;;;17.17;7.70;;;11.00;99.90;;;;;;7281410;19;20784;-75
2023/12/14 10:53:48;;;;;;;20.53;8.10;;;10.80;99.90;;;;;;7276361;19;20718;-75
2023/12/14 10:56:16;;;;;;;16.03;8.03;;;10.80;99.90;;;;;;7281560;19;20425;-75
2023/12/14 10:58:52;;;;;;;16.73;7.60;;;11.00;99.90;;;;;;7280143;19;20197;-75
2023/12/14 11:01:26;;;;;;;21.20;7.73;;;11.10;99.90;;;;;;7279400;19;20271;-75
2023/12/14 11:03:56;;;;;;;15.20;7.53;;;11.20;99.90;;;;;;7282087;19;20218;-74
2023/12/14 11:06:25;;;;;;;20.83;7.43;;;11.10;99.90;;;;;;7279155;19;20186;-75
2023/12/14 11:09:00;;;;;;;21.80;8.23;;;11.10;99.90;;;;;;7301570;19;20702;-74
2023/12/14 11:11:30;;;;;;;20.03;8.00;;;11.00;99.90;;;;;;7257459;19;20249;-75
2023/12/14 11:13:56;;;;;;;16.67;7.67;;;10.90;99.90;;;;;;7279203;19;20183;-76
2023/12/14 11:16:31;;;;;;;18.57;7.67;;;11.00;99.90;;;;;;7302030;19;20219;-75
2023/12/14 11:19:25;;;;;;;19.17;7.90;;;10.80;99.90;;;;;;7256413;19;20204;-75
2023/12/14 11:21:56;;;;;;;19.60;8.60;;;10.70;99.90;;;;;;7280666;19;20196;-75
2023/12/14 11:24:22;;;;;;;17.17;7.67;;;10.70;99.90;;;;;;7280325;19;20190;-75
2023/12/14 11:26:51;;;;;;;20.57;7.00;;;10.60;99.90;;;;;;7292135;19;20202;-75
2023/12/14 11:29:19;;;;;;;22.90;11.30;;;10.60;99.90;;;;;;7279796;19;20183;-75
2023/12/14 11:31:45;;;;;;;22.27;9.83;;;10.50;99.90;;;;;;7279925;19;20568;-75
2023/12/14 11:34:12;;;;;;;18.43;7.27;;;10.60;99.90;;;;;;7278647;19;20191;-75
2023/12/14 11:36:41;;;;;;;19.43;7.23;;;10.70;99.90;;;;;;7279468;19;20222;-75
2023/12/14 11:39:11;;;;;;;17.87;7.17;;;10.60;99.90;;;;;;7279166;19;20194;-77
2023/12/14 11:41:38;;;;;;;17.43;7.90;;;10.70;99.90;;;;;;7279443;19;20596;-75
2023/12/14 11:44:04;;;;;;;16.23;7.73;;;10.80;99.90;;;;;;7280083;19;20223;-75
2023/12/14 11:46:31;;;;;;;19.07;8.50;;;10.70;99.90;;;;;;7279541;19;20182;-75
2023/12/14 11:48:58;;;;;;;20.17;8.87;;;10.70;99.90;;;;;;7277565;19;20186;-75
2023/12/14 11:51:25;;;;;;;21.67;9.33;;;10.60;99.90;;;;;;7286638;19;20182;-75
2023/12/14 11:53:51;;;;;;;21.53;9.23;;;10.60;99.90;;;;;;7300846;19;20185;-74
2023/12/14 11:56:19;;;;;;;22.80;10.13;;;10.60;99.90;;;;;;7278848;19;20220;-75
2023/12/14 11:58:45;;;;;;;17.97;9.73;;;10.70;99.90;;;;;;7278456;19;20656;-75
2023/12/14 12:01:24;;;;;;;24.47;9.83;;;10.90;99.90;;;;;;7277794;19;20186;-75
2023/12/14 12:03:50;;;;;;;23.67;9.73;;;11.00;99.90;;;;;;7278816;19;20193;-75
2023/12/14 12:06:30;;;;;;;22.67;10.83;;;10.80;99.90;;;;;;7278381;19;20286;-75
2023/12/14 12:08:56;;;;;;;22.83;10.60;;;10.70;99.90;;;;;;7255308;19;20176;-75
2023/12/14 12:11:24;;;;;;;21.40;10.53;;;10.70;99.90;;;;;;7299764;19;20196;-75
2023/12/14 12:13:55;;;;;;;21.47;10.30;;;10.60;99.90;;;;;;7278253;19;20203;-74
2023/12/14 12:16:21;;;;;;;18.90;9.27;;;10.60;99.90;;;;;;7278961;19;20183;-75
2023/12/14 12:18:47;;;;;;;20.50;9.37;;;10.60;99.90;;;;;;7277859;19;20263;-75
2023/12/14 12:21:13;;;;;;;22.70;8.57;;;10.40;99.90;;;;;;7278162;19;20277;-75
2023/12/14 12:23:39;;;;;;;16.70;8.17;;;10.40;99.90;;;;;;7278375;19;20199;-75
2023/12/14 12:26:05;;;;;;;19.10;8.43;;;10.30;99.90;;;;;;7278456;19;20201;-75
2023/12/14 12:28:31;;;;;;;17.37;7.43;;;10.40;99.90;;;;;;7278776;19;20185;-75